sensor_id;sensor_type;location;lat;lon;timestamp;pressure;altitude;pressure_sealevel;temperature;humidity
77881;BME280;67077;50.298;18.996;2024-01-30T00:01:18;99737.40;;;-0.33;100.00
77881;BME280;67077;50.298;18.996;2024-01-30T00:03:49;99740.35;;;-0.34;100.00
77881;BME280;67077;50.298;18.996;2024-01-30T00:06:19;99740.16;;;-0.37;100.00
77881;BME280;67077;50.298;18.996;2024-01-30T00:08:48;99738.32;;;-0.38;100.00
77881;BME280;67077;50.298;18.996;2024-01-30T00:11:17;99738.76;;;-0.39;100.00
77881;BME280;67077;50.298;18.996;2024-01-30T00:13:45;99734.33;;;-0.39;100.00
77881;BME280;67077;50.298;18.996;2024-01-30T00:16:23;99732.72;;;-0.39;100.00
77881;BME280;67077;50.298;18.996;2024-01-30T00:18:54;99731.85;;;-0.39;100.00
77881;BME280;67077;50.298;18.996;2024-01-30T00:21:22;99732.44;;;-0.40;100.00
77881;BME280;67077;50.298;18.996;2024-01-30T00:23:50;99730.88;;;-0.40;100.00
77881;BME280;67077;50.298;18.996;2024-01-30T00:26:18;99729.20;;;-0.41;100.00
77881;BME280;67077;50.298;18.996;2024-01-30T00:28:46;99726.25;;;-0.42;100.00
77881;BME280;67077;50.298;18.996;2024-01-30T00:31:14;99729.32;;;-0.43;100.00
77881;BME280;67077;50.298;18.996;2024-01-30T00:33:42;99736.61;;;-0.44;100.00
77881;BME280;67077;50.298;18.996;2024-01-30T00:36:10;99737.41;;;-0.45;100.00
77881;BME280;67077;50.298;18.996;2024-01-30T00:38:38;99738.23;;;-0.46;100.00
77881;BME280;67077;50.298;18.996;2024-01-30T00:41:07;99738.20;;;-0.48;100.00
77881;BME280;67077;50.298;18.996;2024-01-30T00:43:36;99733.01;;;-0.50;100.00
77881;BME280;67077;50.298;18.996;2024-01-30T00:46:03;99730.98;;;-0.52;100.00
77881;BME280;67077;50.298;18.996;2024-01-30T00:48:31;99730.70;;;-0.52;100.00
77881;BME280;67077;50.298;18.996;2024-01-30T00:50:59;99730.63;;;-0.54;100.00
77881;BME280;67077;50.298;18.996;2024-01-30T00:53:27;99726.30;;;-0.55;100.00
77881;BME280;67077;50.298;18.996;2024-01-30T00:55:55;99725.60;;;-0.58;100.00
77881;BME280;67077;50.298;18.996;2024-01-30T00:58:22;99724.64;;;-0.59;100.00
77881;BME280;67077;50.298;18.996;2024-01-30T01:00:50;99726.16;;;-0.61;100.00
77881;BME280;67077;50.298;18.996;2024-01-30T01:03:18;99724.23;;;-0.62;100.00
77881;BME280;67077;50.298;18.996;2024-01-30T01:05:46;99722.84;;;-0.62;100.00
77881;BME280;67077;50.298;18.996;2024-01-30T01:08:13;99718.25;;;-0.62;100.00
77881;BME280;67077;50.298;18.996;2024-01-30T01:10:42;99713.98;;;-0.62;100.00
77881;BME280;67077;50.298;18.996;2024-01-30T01:13:10;99711.21;;;-0.60;100.00
77881;BME280;67077;50.298;18.996;2024-01-30T01:15:38;99707.61;;;-0.59;100.00
77881;BME280;67077;50.298;18.996;2024-01-30T01:18:05;99703.01;;;-0.56;100.00
77881;BME280;67077;50.298;18.996;2024-01-30T01:20:33;99702.10;;;-0.53;100.00
77881;BME280;67077;50.298;18.996;2024-01-30T01:23:01;99699.40;;;-0.53;100.00
77881;BME280;67077;50.298;18.996;2024-01-30T01:25:29;99694.11;;;-0.53;100.00
77881;BME280;67077;50.298;18.996;2024-01-30T01:27:57;99693.84;;;-0.54;100.00
77881;BME280;67077;50.298;18.996;2024-01-30T01:30:25;99694.73;;;-0.55;100.00
77881;BME280;67077;50.298;18.996;2024-01-30T01:32:53;99691.82;;;-0.53;100.00
77881;BME280;67077;50.298;18.996;2024-01-30T01:35:25;99691.67;;;-0.54;100.00
77881;BME280;67077;50.298;18.996;2024-01-30T01:37:54;99693.48;;;-0.54;100.00
77881;BME280;67077;50.298;18.996;2024-01-30T01:40:26;99692.31;;;-0.55;100.00
77881;BME280;67077;50.298;18.996;2024-01-30T01:42:55;99695.02;;;-0.56;100.00
77881;BME280;67077;50.298;18.996;2024-01-30T01:45:23;99694.34;;;-0.56;100.00
77881;BME280;67077;50.298;18.996;2024-01-30T01:47:51;99691.34;;;-0.57;100.00
77881;BME280;67077;50.298;18.996;2024-01-30T01:50:21;99690.02;;;-0.55;100.00
77881;BME280;67077;50.298;18.996;2024-01-30T01:52:50;99691.27;;;-0.56;100.00
77881;BME280;67077;50.298;18.996;2024-01-30T01:55:20;99690.58;;;-0.56;100.00
77881;BME280;67077;50.298;18.996;2024-01-30T01:57:53;99684.92;;;-0.56;100.00
77881;BME280;67077;50.298;18.996;2024-01-30T02:00:21;99687.64;;;-0.54;100.00
77881;BME280;67077;50.298;18.996;2024-01-30T02:02:50;99686.95;;;-0.54;100.00
77881;BME280;67077;50.298;18.996;2024-01-30T02:05:19;99684.66;;;-0.52;100.00
77881;BME280;67077;50.298;18.996;2024-01-30T02:07:47;99685.11;;;-0.51;100.00
77881;BME280;67077;50.298;18.996;2024-01-30T02:10:16;99689.90;;;-0.51;100.00
77881;BME280;67077;50.298;18.996;2024-01-30T02:12:43;99689.36;;;-0.51;100.00
77881;BME280;67077;50.298;18.996;2024-01-30T02:15:13;99687.23;;;-0.51;100.00
77881;BME280;67077;50.298;18.996;2024-01-30T02:17:41;99684.02;;;-0.51;100.00
77881;BME280;67077;50.298;18.996;2024-01-30T02:20:09;99679.66;;;-0.52;100.00
77881;BME280;67077;50.298;18.996;2024-01-30T02:22:38;99676.29;;;-0.51;100.00
77881;BME280;67077;50.298;18.996;2024-01-30T02:25:07;99673.50;;;-0.52;100.00
77881;BME280;67077;50.298;18.996;2024-01-30T02:27:35;99671.73;;;-0.52;100.00
77881;BME280;67077;50.298;18.996;2024-01-30T02:30:04;99665.63;;;-0.51;100.00
77881;BME280;67077;50.298;18.996;2024-01-30T02:32:32;99666.67;;;-0.51;100.00
77881;BME280;67077;50.298;18.996;2024-01-30T02:34:59;99666.41;;;-0.50;100.00
77881;BME280;67077;50.298;18.996;2024-01-30T02:37:27;99673.01;;;-0.50;100.00
77881;BME280;67077;50.298;18.996;2024-01-30T02:39:55;99669.84;;;-0.51;100.00
77881;BME280;67077;50.298;18.996;2024-01-30T02:42:23;99666.30;;;-0.50;100.00
77881;BME280;67077;50.298;18.996;2024-01-30T02:44:51;99669.34;;;-0.51;100.00
77881;BME280;67077;50.298;18.996;2024-01-30T02:47:18;99670.05;;;-0.51;100.00
77881;BME280;67077;50.298;18.996;2024-01-30T02:49:46;99671.43;;;-0.51;100.00
77881;BME280;67077;50.298;18.996;2024-01-30T02:52:14;99671.20;;;-0.50;100.00
77881;BME280;67077;50.298;18.996;2024-01-30T02:54:42;99670.16;;;-0.50;100.00
77881;BME280;67077;50.298;18.996;2024-01-30T02:57:10;99665.35;;;-0.50;100.00
77881;BME280;67077;50.298;18.996;2024-01-30T02:59:38;99666.77;;;-0.50;100.00
77881;BME280;67077;50.298;18.996;2024-01-30T03:02:06;99668.45;;;-0.51;100.00
77881;BME280;67077;50.298;18.996;2024-01-30T03:04:33;99667.48;;;-0.52;100.00
77881;BME280;67077;50.298;18.996;2024-01-30T03:07:01;99671.80;;;-0.53;100.00
77881;BME280;67077;50.298;18.996;2024-01-30T03:09:29;99667.30;;;-0.55;100.00
77881;BME280;67077;50.298;18.996;2024-01-30T03:11:57;99669.88;;;-0.56;100.00
77881;BME280;67077;50.298;18.996;2024-01-30T03:14:24;99663.88;;;-0.56;100.00
77881;BME280;67077;50.298;18.996;2024-01-30T03:16:52;99663.07;;;-0.57;100.00
77881;BME280;67077;50.298;18.996;2024-01-30T03:19:20;99662.73;;;-0.57;100.00
77881;BME280;67077;50.298;18.996;2024-01-30T03:21:48;99660.65;;;-0.58;100.00
77881;BME280;67077;50.298;18.996;2024-01-30T03:24:15;99655.98;;;-0.60;100.00
77881;BME280;67077;50.298;18.996;2024-01-30T03:26:43;99657.83;;;-0.61;100.00
77881;BME280;67077;50.298;18.996;2024-01-30T03:29:11;99652.89;;;-0.62;100.00
77881;BME280;67077;50.298;18.996;2024-01-30T03:31:39;99654.52;;;-0.62;100.00
77881;BME280;67077;50.298;18.996;2024-01-30T03:34:07;99653.38;;;-0.64;100.00
77881;BME280;67077;50.298;18.996;2024-01-30T03:36:35;99654.63;;;-0.64;100.00
77881;BME280;67077;50.298;18.996;2024-01-30T03:39:03;99655.66;;;-0.64;100.00
77881;BME280;67077;50.298;18.996;2024-01-30T03:41:30;99656.95;;;-0.64;100.00
77881;BME280;67077;50.298;18.996;2024-01-30T03:43:58;99657.27;;;-0.64;100.00
77881;BME280;67077;50.298;18.996;2024-01-30T03:46:26;99652.60;;;-0.65;100.00
77881;BME280;67077;50.298;18.996;2024-01-30T03:48:54;99656.34;;;-0.65;100.00
77881;BME280;67077;50.298;18.996;2024-01-30T03:51:22;99657.91;;;-0.65;100.00
77881;BME280;67077;50.298;18.996;2024-01-30T03:53:49;99658.19;;;-0.66;100.00
77881;BME280;67077;50.298;18.996;2024-01-30T03:56:17;99651.81;;;-0.66;100.00
77881;BME280;67077;50.298;18.996;2024-01-30T03:58:45;99651.77;;;-0.68;100.00
77881;BME280;67077;50.298;18.996;2024-01-30T04:01:16;99650.59;;;-0.69;100.00
77881;BME280;67077;50.298;18.996;2024-01-30T04:03:44;99653.30;;;-0.70;100.00
77881;BME280;67077;50.298;18.996;2024-01-30T04:06:12;99648.48;;;-0.69;100.00
77881;BME280;67077;50.298;18.996;2024-01-30T04:08:39;99654.80;;;-0.68;100.00
77881;BME280;67077;50.298;18.996;2024-01-30T04:11:07;99653.33;;;-0.68;100.00
77881;BME280;67077;50.298;18.996;2024-01-30T04:13:35;99648.98;;;-0.68;100.00
77881;BME280;67077;50.298;18.996;2024-01-30T04:16:03;99651.83;;;-0.69;100.00
77881;BME280;67077;50.298;18.996;2024-01-30T04:18:31;99648.55;;;-0.70;100.00
77881;BME280;67077;50.298;18.996;2024-01-30T04:21:00;99644.12;;;-0.70;100.00
77881;BME280;67077;50.298;18.996;2024-01-30T04:23:28;99640.06;;;-0.70;100.00
77881;BME280;67077;50.298;18.996;2024-01-30T04:25:56;99640.77;;;-0.70;100.00
77881;BME280;67077;50.298;18.996;2024-01-30T04:28:23;99639.08;;;-0.69;100.00
77881;BME280;67077;50.298;18.996;2024-01-30T04:30:51;99642.34;;;-0.68;100.00
77881;BME280;67077;50.298;18.996;2024-01-30T04:33:19;99650.02;;;-0.66;100.00
77881;BME280;67077;50.298;18.996;2024-01-30T04:35:47;99647.23;;;-0.64;100.00
77881;BME280;67077;50.298;18.996;2024-01-30T04:38:14;99646.02;;;-0.64;100.00
77881;BME280;67077;50.298;18.996;2024-01-30T04:40:43;99650.40;;;-0.64;100.00
77881;BME280;67077;50.298;18.996;2024-01-30T04:43:11;99650.81;;;-0.65;100.00
77881;BME280;67077;50.298;18.996;2024-01-30T04:45:38;99654.36;;;-0.65;100.00
77881;BME280;67077;50.298;18.996;2024-01-30T04:48:06;99648.11;;;-0.64;100.00
77881;BME280;67077;50.298;18.996;2024-01-30T04:50:34;99654.02;;;-0.65;100.00
77881;BME280;67077;50.298;18.996;2024-01-30T04:53:02;99648.71;;;-0.65;100.00
77881;BME280;67077;50.298;18.996;2024-01-30T04:55:30;99648.71;;;-0.65;100.00
77881;BME280;67077;50.298;18.996;2024-01-30T04:57:58;99643.89;;;-0.64;100.00
77881;BME280;67077;50.298;18.996;2024-01-30T05:00:25;99646.90;;;-0.65;100.00
77881;BME280;67077;50.298;18.996;2024-01-30T05:02:55;99646.79;;;-0.65;100.00
77881;BME280;67077;50.298;18.996;2024-01-30T05:05:23;99648.27;;;-0.66;100.00
77881;BME280;67077;50.298;18.996;2024-01-30T05:07:51;99649.69;;;-0.66;100.00
77881;BME280;67077;50.298;18.996;2024-01-30T05:10:18;99646.94;;;-0.65;100.00
77881;BME280;67077;50.298;18.996;2024-01-30T05:12:46;99645.11;;;-0.64;100.00
77881;BME280;67077;50.298;18.996;2024-01-30T05:15:14;99646.47;;;-0.64;100.00
77881;BME280;67077;50.298;18.996;2024-01-30T05:17:42;99646.06;;;-0.63;100.00
77881;BME280;67077;50.298;18.996;2024-01-30T05:20:10;99645.34;;;-0.63;100.00
77881;BME280;67077;50.298;18.996;2024-01-30T05:22:38;99652.95;;;-0.63;100.00
77881;BME280;67077;50.298;18.996;2024-01-30T05:25:12;99655.77;;;-0.62;100.00
77881;BME280;67077;50.298;18.996;2024-01-30T05:27:40;99655.48;;;-0.63;100.00
77881;BME280;67077;50.298;18.996;2024-01-30T05:30:08;99657.27;;;-0.63;100.00
77881;BME280;67077;50.298;18.996;2024-01-30T05:32:36;99654.95;;;-0.63;100.00
77881;BME280;67077;50.298;18.996;2024-01-30T05:35:04;99656.69;;;-0.63;100.00
77881;BME280;67077;50.298;18.996;2024-01-30T05:37:33;99653.19;;;-0.63;100.00
77881;BME280;67077;50.298;18.996;2024-01-30T05:40:01;99656.81;;;-0.62;100.00
77881;BME280;67077;50.298;18.996;2024-01-30T05:42:28;99657.75;;;-0.63;100.00
77881;BME280;67077;50.298;18.996;2024-01-30T05:44:56;99655.09;;;-0.63;100.00
77881;BME280;67077;50.298;18.996;2024-01-30T05:47:25;99659.68;;;-0.63;100.00
77881;BME280;67077;50.298;18.996;2024-01-30T05:49:52;99661.47;;;-0.63;100.00
77881;BME280;67077;50.298;18.996;2024-01-30T05:52:20;99661.52;;;-0.63;100.00
77881;BME280;67077;50.298;18.996;2024-01-30T05:54:48;99658.45;;;-0.65;100.00
77881;BME280;67077;50.298;18.996;2024-01-30T05:57:16;99656.69;;;-0.67;100.00
77881;BME280;67077;50.298;18.996;2024-01-30T05:59:44;99652.30;;;-0.70;100.00
77881;BME280;67077;50.298;18.996;2024-01-30T06:02:12;99652.19;;;-0.74;100.00
77881;BME280;67077;50.298;18.996;2024-01-30T06:04:40;99651.89;;;-0.77;100.00
77881;BME280;67077;50.298;18.996;2024-01-30T06:07:08;99655.13;;;-0.80;100.00
77881;BME280;67077;50.298;18.996;2024-01-30T06:09:35;99659.31;;;-0.84;100.00
77881;BME280;67077;50.298;18.996;2024-01-30T06:12:05;99658.66;;;-0.87;100.00
77881;BME280;67077;50.298;18.996;2024-01-30T06:14:33;99657.08;;;-0.90;100.00
77881;BME280;67077;50.298;18.996;2024-01-30T06:17:00;99657.21;;;-0.92;100.00
77881;BME280;67077;50.298;18.996;2024-01-30T06:19:28;99660.76;;;-0.95;100.00
77881;BME280;67077;50.298;18.996;2024-01-30T06:21:56;99661.30;;;-0.97;100.00
77881;BME280;67077;50.298;18.996;2024-01-30T06:24:24;99661.48;;;-1.00;100.00
77881;BME280;67077;50.298;18.996;2024-01-30T06:26:52;99660.92;;;-1.02;100.00
77881;BME280;67077;50.298;18.996;2024-01-30T06:29:19;99661.05;;;-1.04;100.00
77881;BME280;67077;50.298;18.996;2024-01-30T06:31:48;99662.08;;;-1.06;100.00
77881;BME280;67077;50.298;18.996;2024-01-30T06:34:16;99667.41;;;-1.09;100.00
77881;BME280;67077;50.298;18.996;2024-01-30T06:36:44;99667.14;;;-1.10;100.00
77881;BME280;67077;50.298;18.996;2024-01-30T06:39:12;99665.98;;;-1.11;100.00
77881;BME280;67077;50.298;18.996;2024-01-30T06:41:39;99664.95;;;-1.11;100.00
77881;BME280;67077;50.298;18.996;2024-01-30T06:44:07;99665.31;;;-1.12;100.00
77881;BME280;67077;50.298;18.996;2024-01-30T06:46:36;99661.41;;;-1.11;100.00
77881;BME280;67077;50.298;18.996;2024-01-30T06:49:08;99662.26;;;-1.11;100.00
77881;BME280;67077;50.298;18.996;2024-01-30T06:51:36;99666.44;;;-1.10;100.00
77881;BME280;67077;50.298;18.996;2024-01-30T06:54:04;99672.89;;;-1.09;100.00
77881;BME280;67077;50.298;18.996;2024-01-30T06:56:32;99671.52;;;-1.07;100.00
77881;BME280;67077;50.298;18.996;2024-01-30T06:59:00;99668.40;;;-1.03;100.00
77881;BME280;67077;50.298;18.996;2024-01-30T07:01:29;99665.17;;;-0.99;100.00
77881;BME280;67077;50.298;18.996;2024-01-30T07:03:57;99663.29;;;-0.96;100.00
77881;BME280;67077;50.298;18.996;2024-01-30T07:06:26;99665.69;;;-0.92;100.00
77881;BME280;67077;50.298;18.996;2024-01-30T07:08:53;99666.60;;;-0.87;100.00
77881;BME280;67077;50.298;18.996;2024-01-30T07:11:22;99666.08;;;-0.82;100.00
77881;BME280;67077;50.298;18.996;2024-01-30T07:13:55;99666.73;;;-0.77;100.00
77881;BME280;67077;50.298;18.996;2024-01-30T07:16:23;99669.05;;;-0.72;100.00
77881;BME280;67077;50.298;18.996;2024-01-30T07:18:51;99674.65;;;-0.66;100.00
77881;BME280;67077;50.298;18.996;2024-01-30T07:21:19;99680.79;;;-0.60;100.00
77881;BME280;67077;50.298;18.996;2024-01-30T07:23:49;99683.59;;;-0.54;100.00
77881;BME280;67077;50.298;18.996;2024-01-30T07:26:17;99681.11;;;-0.47;100.00
77881;BME280;67077;50.298;18.996;2024-01-30T07:28:45;99677.29;;;-0.41;100.00
77881;BME280;67077;50.298;18.996;2024-01-30T07:31:13;99674.29;;;-0.34;100.00
77881;BME280;67077;50.298;18.996;2024-01-30T07:33:41;99671.53;;;-0.28;100.00
77881;BME280;67077;50.298;18.996;2024-01-30T07:36:09;99673.92;;;-0.19;100.00
77881;BME280;67077;50.298;18.996;2024-01-30T07:38:39;99669.10;;;-0.12;100.00
77881;BME280;67077;50.298;18.996;2024-01-30T07:41:08;99667.92;;;-0.03;100.00
77881;BME280;67077;50.298;18.996;2024-01-30T07:43:38;99668.53;;;0.06;100.00
77881;BME280;67077;50.298;18.996;2024-01-30T07:46:06;99672.99;;;0.15;100.00
77881;BME280;67077;50.298;18.996;2024-01-30T07:48:34;99675.86;;;0.24;100.00
77881;BME280;67077;50.298;18.996;2024-01-30T07:51:02;99673.86;;;0.32;100.00
77881;BME280;67077;50.298;18.996;2024-01-30T07:53:31;99671.66;;;0.39;100.00
77881;BME280;67077;50.298;18.996;2024-01-30T07:55:59;99670.84;;;0.48;100.00
77881;BME280;67077;50.298;18.996;2024-01-30T07:58:28;99673.73;;;0.56;100.00
77881;BME280;67077;50.298;18.996;2024-01-30T08:00:57;99674.61;;;0.64;100.00
77881;BME280;67077;50.298;18.996;2024-01-30T08:03:26;99673.80;;;0.72;100.00
77881;BME280;67077;50.298;18.996;2024-01-30T08:05:54;99674.31;;;0.79;100.00
77881;BME280;67077;50.298;18.996;2024-01-30T08:08:21;99674.70;;;0.85;100.00
77881;BME280;67077;50.298;18.996;2024-01-30T08:10:50;99676.33;;;0.92;100.00
77881;BME280;67077;50.298;18.996;2024-01-30T08:13:18;99676.59;;;1.00;100.00
77881;BME280;67077;50.298;18.996;2024-01-30T08:15:45;99676.77;;;1.07;100.00
77881;BME280;67077;50.298;18.996;2024-01-30T08:18:13;99677.61;;;1.14;100.00
77881;BME280;67077;50.298;18.996;2024-01-30T08:20:41;99681.29;;;1.21;100.00
77881;BME280;67077;50.298;18.996;2024-01-30T08:23:09;99679.52;;;1.26;100.00
77881;BME280;67077;50.298;18.996;2024-01-30T08:25:38;99683.40;;;1.33;100.00
77881;BME280;67077;50.298;18.996;2024-01-30T08:28:06;99677.42;;;1.39;100.00
77881;BME280;67077;50.298;18.996;2024-01-30T08:30:37;99678.36;;;1.45;100.00
77881;BME280;67077;50.298;18.996;2024-01-30T08:33:07;99679.08;;;1.51;100.00
77881;BME280;67077;50.298;18.996;2024-01-30T08:35:35;99673.85;;;1.57;100.00
77881;BME280;67077;50.298;18.996;2024-01-30T08:38:02;99672.81;;;1.63;100.00
77881;BME280;67077;50.298;18.996;2024-01-30T08:40:31;99671.30;;;1.68;100.00
77881;BME280;67077;50.298;18.996;2024-01-30T08:42:58;99672.95;;;1.74;100.00
77881;BME280;67077;50.298;18.996;2024-01-30T08:45:26;99671.71;;;1.81;100.00
77881;BME280;67077;50.298;18.996;2024-01-30T08:47:54;99671.95;;;1.87;100.00
77881;BME280;67077;50.298;18.996;2024-01-30T08:50:22;99672.20;;;1.92;100.00
77881;BME280;67077;50.298;18.996;2024-01-30T08:52:50;99674.98;;;1.97;100.00
77881;BME280;67077;50.298;18.996;2024-01-30T08:55:18;99678.87;;;2.02;100.00
77881;BME280;67077;50.298;18.996;2024-01-30T08:57:45;99676.61;;;2.08;100.00
77881;BME280;67077;50.298;18.996;2024-01-30T09:00:13;99678.85;;;2.13;100.00
77881;BME280;67077;50.298;18.996;2024-01-30T09:02:42;99677.96;;;2.19;100.00
77881;BME280;67077;50.298;18.996;2024-01-30T09:05:10;99671.77;;;2.25;100.00
77881;BME280;67077;50.298;18.996;2024-01-30T09:07:38;99676.36;;;2.30;100.00
77881;BME280;67077;50.298;18.996;2024-01-30T09:10:06;99675.20;;;2.35;100.00
77881;BME280;67077;50.298;18.996;2024-01-30T09:12:34;99672.81;;;2.43;100.00
77881;BME280;67077;50.298;18.996;2024-01-30T09:15:02;99675.10;;;2.51;100.00
77881;BME280;67077;50.298;18.996;2024-01-30T09:17:31;99673.89;;;2.59;100.00
77881;BME280;67077;50.298;18.996;2024-01-30T09:19:58;99673.52;;;2.66;100.00
77881;BME280;67077;50.298;18.996;2024-01-30T09:22:26;99671.01;;;2.72;100.00
77881;BME280;67077;50.298;18.996;2024-01-30T09:24:54;99672.07;;;2.79;100.00
77881;BME280;67077;50.298;18.996;2024-01-30T09:27:22;99671.98;;;2.85;100.00
77881;BME280;67077;50.298;18.996;2024-01-30T09:29:49;99674.40;;;2.93;100.00
77881;BME280;67077;50.298;18.996;2024-01-30T09:32:17;99672.55;;;3.00;100.00
77881;BME280;67077;50.298;18.996;2024-01-30T09:34:46;99666.17;;;3.06;100.00
77881;BME280;67077;50.298;18.996;2024-01-30T09:37:14;99666.83;;;3.12;100.00
77881;BME280;67077;50.298;18.996;2024-01-30T09:39:43;99666.04;;;3.19;100.00
77881;BME280;67077;50.298;18.996;2024-01-30T09:42:35;99666.39;;;3.26;100.00
77881;BME280;67077;50.298;18.996;2024-01-30T09:45:04;99665.63;;;3.34;100.00
77881;BME280;67077;50.298;18.996;2024-01-30T09:47:44;99663.98;;;3.41;100.00
77881;BME280;67077;50.298;18.996;2024-01-30T09:50:14;99658.14;;;3.46;100.00
77881;BME280;67077;50.298;18.996;2024-01-30T09:52:46;99659.65;;;3.51;100.00
77881;BME280;67077;50.298;18.996;2024-01-30T09:55:14;99654.75;;;3.56;100.00
77881;BME280;67077;50.298;18.996;2024-01-30T09:57:42;99657.71;;;3.59;100.00
77881;BME280;67077;50.298;18.996;2024-01-30T10:00:11;99648.63;;;3.65;100.00
77881;BME280;67077;50.298;18.996;2024-01-30T10:02:42;99649.56;;;3.73;100.00
77881;BME280;67077;50.298;18.996;2024-01-30T10:05:11;99646.14;;;3.79;100.00
77881;BME280;67077;50.298;18.996;2024-01-30T10:07:50;99645.98;;;3.85;100.00
77881;BME280;67077;50.298;18.996;2024-01-30T10:10:18;99643.33;;;3.92;100.00
77881;BME280;67077;50.298;18.996;2024-01-30T10:12:45;99644.42;;;4.00;100.00
77881;BME280;67077;50.298;18.996;2024-01-30T10:15:14;99642.00;;;4.07;100.00
77881;BME280;67077;50.298;18.996;2024-01-30T10:17:43;99642.66;;;4.11;100.00
77881;BME280;67077;50.298;18.996;2024-01-30T10:20:12;99637.31;;;4.17;100.00
77881;BME280;67077;50.298;18.996;2024-01-30T10:22:44;99634.58;;;4.24;100.00
77881;BME280;67077;50.298;18.996;2024-01-30T10:25:13;99634.30;;;4.31;100.00
77881;BME280;67077;50.298;18.996;2024-01-30T10:27:41;99630.63;;;4.35;100.00
77881;BME280;67077;50.298;18.996;2024-01-30T10:30:09;99627.27;;;4.41;100.00
77881;BME280;67077;50.298;18.996;2024-01-30T10:32:37;99626.12;;;4.45;100.00
77881;BME280;67077;50.298;18.996;2024-01-30T10:35:07;99620.27;;;4.51;100.00
77881;BME280;67077;50.298;18.996;2024-01-30T10:37:36;99617.39;;;4.57;100.00
77881;BME280;67077;50.298;18.996;2024-01-30T10:40:07;99614.42;;;4.64;100.00
77881;BME280;67077;50.298;18.996;2024-01-30T10:42:36;99611.47;;;4.70;100.00
77881;BME280;67077;50.298;18.996;2024-01-30T10:45:09;99607.65;;;4.76;100.00
77881;BME280;67077;50.298;18.996;2024-01-30T10:47:40;99602.39;;;4.83;100.00
77881;BME280;67077;50.298;18.996;2024-01-30T10:50:08;99602.03;;;4.89;100.00
77881;BME280;67077;50.298;18.996;2024-01-30T10:52:39;99596.63;;;4.95;100.00
77881;BME280;67077;50.298;18.996;2024-01-30T10:55:10;99598.11;;;4.98;100.00
77881;BME280;67077;50.298;18.996;2024-01-30T10:57:38;99596.23;;;5.03;100.00
77881;BME280;67077;50.298;18.996;2024-01-30T11:00:10;99592.45;;;5.07;100.00
77881;BME280;67077;50.298;18.996;2024-01-30T11:02:43;99595.95;;;5.09;100.00
77881;BME280;67077;50.298;18.996;2024-01-30T11:05:12;99593.06;;;5.13;100.00
77881;BME280;67077;50.298;18.996;2024-01-30T11:07:40;99587.60;;;5.16;100.00
77881;BME280;67077;50.298;18.996;2024-01-30T11:10:12;99587.51;;;5.17;100.00
77881;BME280;67077;50.298;18.996;2024-01-30T11:12:42;99582.73;;;5.19;100.00
77881;BME280;67077;50.298;18.996;2024-01-30T11:15:16;99580.88;;;5.21;100.00
77881;BME280;67077;50.298;18.996;2024-01-30T11:20:29;99579.73;;;5.27;100.00
77881;BME280;67077;50.298;18.996;2024-01-30T11:22:59;99580.94;;;5.29;100.00
77881;BME280;67077;50.298;18.996;2024-01-30T11:25:31;99581.90;;;5.32;100.00
77881;BME280;67077;50.298;18.996;2024-01-30T11:27:59;99576.31;;;5.36;100.00
77881;BME280;67077;50.298;18.996;2024-01-30T11:30:29;99577.45;;;5.40;100.00
77881;BME280;67077;50.298;18.996;2024-01-30T11:33:08;99574.70;;;5.44;100.00
77881;BME280;67077;50.298;18.996;2024-01-30T11:35:41;99572.02;;;5.48;100.00
77881;BME280;67077;50.298;18.996;2024-01-30T11:38:15;99568.09;;;5.50;100.00
77881;BME280;67077;50.298;18.996;2024-01-30T11:40:43;99565.24;;;5.53;100.00
77881;BME280;67077;50.298;18.996;2024-01-30T11:43:11;99562.03;;;5.55;100.00
77881;BME280;67077;50.298;18.996;2024-01-30T11:45:40;99560.23;;;5.59;100.00
77881;BME280;67077;50.298;18.996;2024-01-30T11:48:08;99555.50;;;5.63;100.00
77881;BME280;67077;50.298;18.996;2024-01-30T11:50:39;99551.46;;;5.65;100.00
77881;BME280;67077;50.298;18.996;2024-01-30T11:53:09;99542.77;;;5.67;100.00
77881;BME280;67077;50.298;18.996;2024-01-30T11:55:36;99542.66;;;5.68;100.00
77881;BME280;67077;50.298;18.996;2024-01-30T11:58:05;99536.54;;;5.68;100.00
77881;BME280;67077;50.298;18.996;2024-01-30T12:00:33;99535.64;;;5.70;100.00
77881;BME280;67077;50.298;18.996;2024-01-30T12:03:01;99531.84;;;5.73;100.00
77881;BME280;67077;50.298;18.996;2024-01-30T12:05:30;99529.77;;;5.75;100.00
77881;BME280;67077;50.298;18.996;2024-01-30T12:07:58;99527.41;;;5.77;100.00
77881;BME280;67077;50.298;18.996;2024-01-30T12:10:26;99525.10;;;5.81;100.00
77881;BME280;67077;50.298;18.996;2024-01-30T12:12:54;99521.92;;;5.84;100.00
77881;BME280;67077;50.298;18.996;2024-01-30T12:15:23;99515.84;;;5.89;100.00
77881;BME280;67077;50.298;18.996;2024-01-30T12:17:51;99512.73;;;5.93;100.00
77881;BME280;67077;50.298;18.996;2024-01-30T12:20:19;99507.27;;;5.94;100.00
77881;BME280;67077;50.298;18.996;2024-01-30T12:22:49;99506.81;;;5.95;99.97
77881;BME280;67077;50.298;18.996;2024-01-30T12:25:19;99503.08;;;5.97;100.00
77881;BME280;67077;50.298;18.996;2024-01-30T12:27:49;99505.48;;;6.00;99.93
77881;BME280;67077;50.298;18.996;2024-01-30T12:30:20;99501.41;;;6.02;99.73
77881;BME280;67077;50.298;18.996;2024-01-30T12:32:50;99498.70;;;6.04;99.92
77881;BME280;67077;50.298;18.996;2024-01-30T12:35:20;99494.79;;;6.05;99.88
77881;BME280;67077;50.298;18.996;2024-01-30T12:37:48;99493.17;;;6.07;99.81
77881;BME280;67077;50.298;18.996;2024-01-30T12:40:17;99494.39;;;6.07;99.78
77881;BME280;67077;50.298;18.996;2024-01-30T12:42:47;99495.77;;;6.08;99.89
77881;BME280;67077;50.298;18.996;2024-01-30T12:45:17;99494.10;;;6.08;100.00
77881;BME280;67077;50.298;18.996;2024-01-30T12:47:49;99487.64;;;6.10;100.00
77881;BME280;67077;50.298;18.996;2024-01-30T12:50:17;99486.96;;;6.13;100.00
77881;BME280;67077;50.298;18.996;2024-01-30T12:52:46;99484.88;;;6.16;100.00
77881;BME280;67077;50.298;18.996;2024-01-30T12:55:14;99482.67;;;6.18;100.00